createdAt,value
2022-08-13T00:00:27.276Z,343.00
2022-08-13T00:00:57.391Z,342.00
2022-08-13T00:01:32.330Z,342.00
2022-08-13T00:01:57.795Z,341.00
2022-08-13T00:02:27.654Z,342.00
2022-08-13T00:02:57.731Z,342.00
2022-08-13T00:03:58.954Z,344.00
2022-08-13T00:04:02.585Z,342.00
2022-08-13T00:04:30.574Z,343.00
2022-08-13T00:04:57.926Z,345.00
2022-08-13T00:05:43.321Z,344.00
2022-08-13T00:05:57.991Z,342.00
2022-08-13T00:06:28.781Z,342.00
2022-08-13T00:06:58.190Z,344.00
2022-08-13T00:07:28.178Z,342.00
2022-08-13T00:07:58.196Z,341.00
2022-08-13T00:08:28.329Z,342.00
2022-08-13T00:08:59.087Z,341.00
2022-08-13T00:09:39.427Z,341.00
2022-08-13T00:09:58.349Z,341.00
2022-08-13T00:10:28.350Z,342.00
2022-08-13T00:10:58.970Z,341.00
2022-08-13T00:11:28.386Z,344.00
2022-08-13T00:12:00.719Z,344.00
2022-08-13T00:12:30.975Z,343.00
2022-08-13T00:12:58.524Z,342.00
2022-08-13T00:13:43.963Z,342.00
2022-08-13T00:13:58.539Z,343.00
2022-08-13T00:14:34.782Z,343.00
2022-08-13T00:14:58.558Z,345.00
2022-08-13T00:15:28.663Z,344.00
2022-08-13T00:15:58.783Z,344.00
2022-08-13T00:16:28.946Z,343.00
2022-08-13T00:16:58.983Z,344.00
2022-08-13T00:17:50.342Z,345.00
2022-08-13T00:18:03.770Z,344.00
2022-08-13T00:18:30.248Z,342.00
2022-08-13T00:18:59.252Z,343.00
2022-08-13T00:19:29.118Z,341.00
2022-08-13T00:19:59.204Z,341.00
2022-08-13T00:20:29.199Z,342.00
2022-08-13T00:20:59.317Z,341.00
2022-08-13T00:21:46.757Z,341.00
2022-08-13T00:22:29.213Z,341.00
2022-08-13T00:22:31.966Z,342.00
2022-08-13T00:23:00.849Z,341.00
2022-08-13T00:23:54.114Z,341.00
2022-08-13T00:24:00.462Z,339.00
2022-08-13T00:24:31.424Z,338.00
2022-08-13T00:24:59.918Z,337.00
2022-08-13T00:25:42.909Z,337.00
2022-08-13T00:25:59.955Z,338.00
2022-08-13T00:26:34.074Z,339.00
2022-08-13T00:27:00.085Z,338.00
2022-08-13T00:27:41.741Z,336.00
2022-08-13T00:28:01.765Z,335.00
2022-08-13T00:28:30.108Z,335.00
2022-08-13T00:29:00.110Z,333.00
2022-08-13T00:29:31.298Z,335.00
2022-08-13T00:30:00.184Z,336.00
2022-08-13T00:30:32.655Z,335.00
2022-08-13T00:31:00.311Z,336.00
2022-08-13T00:31:30.416Z,335.00
2022-08-13T00:32:00.469Z,337.00
2022-08-13T00:32:30.558Z,338.00
2022-08-13T00:33:00.560Z,341.00
2022-08-13T00:33:44.465Z,342.00
2022-08-13T00:34:00.598Z,343.00
2022-08-13T00:34:30.583Z,343.00
2022-08-13T00:35:00.628Z,342.00
2022-08-13T00:35:39.546Z,341.00
2022-08-13T00:36:00.866Z,341.00
2022-08-13T00:36:37.414Z,342.00
2022-08-13T00:37:06.209Z,342.00
2022-08-13T00:37:34.263Z,342.00
2022-08-13T00:38:00.874Z,343.00
2022-08-13T00:38:36.945Z,341.00
2022-08-13T00:39:00.990Z,342.00
2022-08-13T00:40:16.574Z,345.00
2022-08-13T00:40:17.852Z,343.00
2022-08-13T00:40:32.841Z,346.00
2022-08-13T00:41:01.406Z,345.00
2022-08-13T00:41:58.671Z,344.00
2022-08-13T00:42:01.623Z,345.00
2022-08-13T00:42:31.574Z,345.00
2022-08-13T00:43:01.668Z,344.00
2022-08-13T00:43:32.937Z,344.00
2022-08-13T00:44:01.830Z,345.00
2022-08-13T00:44:31.855Z,344.00
2022-08-13T00:45:01.948Z,344.00
2022-08-13T00:45:32.053Z,345.00
2022-08-13T00:46:02.136Z,345.00
2022-08-13T00:46:32.180Z,344.00
2022-08-13T00:47:02.263Z,343.00
2022-08-13T00:47:32.377Z,344.00
2022-08-13T00:48:02.379Z,342.00
2022-08-13T00:48:32.461Z,341.00
2022-08-13T00:49:02.537Z,342.00
2022-08-13T00:49:32.655Z,345.00
2022-08-13T00:50:02.660Z,343.00
2022-08-13T00:50:32.775Z,345.00
2022-08-13T00:51:02.779Z,345.00
2022-08-13T00:51:56.692Z,345.00
2022-08-13T00:52:02.826Z,345.00
2022-08-13T00:52:32.961Z,343.00
2022-08-13T00:53:02.977Z,343.00
2022-08-13T00:53:42.540Z,343.00
2022-08-13T00:54:10.390Z,343.00
2022-08-13T00:54:33.125Z,344.00
2022-08-13T00:55:03.579Z,343.00
2022-08-13T00:55:33.178Z,342.00
2022-08-13T00:56:03.290Z,343.00
2022-08-13T00:56:33.301Z,343.00
2022-08-13T00:57:03.406Z,343.00
2022-08-13T00:57:33.773Z,342.00
2022-08-13T00:58:03.558Z,342.00
2022-08-13T00:58:33.616Z,342.00
2022-08-13T00:59:03.612Z,343.00
2022-08-13T00:59:35.759Z,343.00
2022-08-13T01:00:03.714Z,343.00
2022-08-13T01:00:33.721Z,344.00
2022-08-13T01:01:03.752Z,344.00
2022-08-13T01:01:35.640Z,343.00
2022-08-13T01:02:03.836Z,344.00
2022-08-13T01:02:33.859Z,344.00
2022-08-13T01:03:16.775Z,344.00
2022-08-13T01:03:56.819Z,344.00
2022-08-13T01:04:10.689Z,346.00
2022-08-13T01:04:33.997Z,343.00
2022-08-13T01:05:04.063Z,344.00
2022-08-13T01:05:41.305Z,342.00
2022-08-13T01:06:04.190Z,342.00
2022-08-13T01:06:34.273Z,342.00
2022-08-13T01:07:12.529Z,342.00
2022-08-13T01:07:47.709Z,343.00
2022-08-13T01:08:06.892Z,344.00
2022-08-13T01:08:34.409Z,343.00
2022-08-13T01:09:04.429Z,342.00
2022-08-13T01:10:17.530Z,343.00
2022-08-13T01:10:17.812Z,341.00
2022-08-13T01:10:34.515Z,341.00
2022-08-13T01:11:05.607Z,341.00
2022-08-13T01:11:34.531Z,342.00
2022-08-13T01:12:04.521Z,342.00
2022-08-13T01:12:34.546Z,343.00
2022-08-13T01:13:04.537Z,342.00
2022-08-13T01:13:34.576Z,342.00
2022-08-13T01:14:04.662Z,343.00
2022-08-13T01:14:34.787Z,343.00
2022-08-13T01:15:04.771Z,345.00
2022-08-13T01:15:52.635Z,345.00
2022-08-13T01:16:04.801Z,343.00
2022-08-13T01:16:34.882Z,343.00
2022-08-13T01:17:07.211Z,344.00
2022-08-13T01:17:47.225Z,344.00
2022-08-13T01:18:06.532Z,341.00
2022-08-13T01:18:35.134Z,341.00
2022-08-13T01:19:05.126Z,341.00
2022-08-13T01:19:53.548Z,340.00
2022-08-13T01:20:05.198Z,340.00
2022-08-13T01:20:35.271Z,341.00
2022-08-13T01:21:09.618Z,342.00
2022-08-13T01:21:41.445Z,341.00
2022-08-13T01:22:05.389Z,343.00
2022-08-13T01:22:35.475Z,344.00
2022-08-13T01:23:05.623Z,346.00
2022-08-13T01:23:37.653Z,345.00
2022-08-13T01:24:05.635Z,343.00
2022-08-13T01:24:35.750Z,343.00
2022-08-13T01:25:06.499Z,343.00
2022-08-13T01:25:43.389Z,344.00
2022-08-13T01:26:09.572Z,344.00
2022-08-13T01:26:37.300Z,345.00
2022-08-13T01:27:05.936Z,344.00
2022-08-13T01:27:36.558Z,344.00
2022-08-13T01:28:06.027Z,343.00
2022-08-13T01:28:36.155Z,342.00
2022-08-13T01:29:06.150Z,343.00
2022-08-13T01:29:37.090Z,346.00
2022-08-13T01:30:06.173Z,346.00
2022-08-13T01:30:36.268Z,347.00
2022-08-13T01:31:17.109Z,347.00
2022-08-13T01:31:36.414Z,348.00
2022-08-13T01:32:06.420Z,347.00
2022-08-13T01:32:55.341Z,348.00
2022-08-13T01:33:06.569Z,349.00
2022-08-13T01:33:48.145Z,346.00
2022-08-13T01:34:06.583Z,347.00
2022-08-13T01:34:36.596Z,347.00
2022-08-13T01:35:06.594Z,348.00
2022-08-13T01:35:37.319Z,348.00
2022-08-13T01:36:13.769Z,347.00
2022-08-13T01:36:55.071Z,348.00
2022-08-13T01:37:06.746Z,348.00
2022-08-13T01:37:36.832Z,348.00
2022-08-13T01:38:06.847Z,348.00
2022-08-13T01:38:36.848Z,348.00
2022-08-13T01:39:10.071Z,347.00
2022-08-13T01:39:39.535Z,348.00
2022-08-13T01:40:07.132Z,346.00
2022-08-13T01:40:37.064Z,346.00
2022-08-13T01:41:10.309Z,344.00
2022-08-13T01:41:53.597Z,345.00
2022-08-13T01:42:07.283Z,346.00
2022-08-13T01:42:37.347Z,346.00
2022-08-13T01:43:21.702Z,346.00
2022-08-13T01:44:18.727Z,362.00
2022-08-13T01:44:43.617Z,348.00
2022-08-13T01:45:13.714Z,344.00
2022-08-13T01:45:43.770Z,341.00
2022-08-13T01:46:17.684Z,340.00
2022-08-13T01:46:43.897Z,340.00
2022-08-13T01:47:15.147Z,339.00
2022-08-13T01:47:57.714Z,339.00
2022-08-13T01:48:15.340Z,338.00
2022-08-13T01:48:48.044Z,338.00
2022-08-13T01:49:19.196Z,337.00
2022-08-13T01:49:47.189Z,337.00
2022-08-13T01:50:14.550Z,336.00
2022-08-13T01:50:44.852Z,336.00
2022-08-13T01:51:19.767Z,334.00
2022-08-13T01:51:44.785Z,333.00
2022-08-13T01:52:14.892Z,335.00
2022-08-13T01:52:44.984Z,337.00
2022-08-13T01:53:22.905Z,339.00
2022-08-13T01:53:45.133Z,339.00
2022-08-13T01:54:38.431Z,339.00
2022-08-13T01:54:45.202Z,338.00
2022-08-13T01:55:15.659Z,337.00
2022-08-13T01:56:05.456Z,336.00
2022-08-13T01:56:18.683Z,334.00
2022-08-13T01:56:45.364Z,334.00
2022-08-13T01:57:16.052Z,335.00
2022-08-13T01:57:51.389Z,335.00
2022-08-13T01:58:15.598Z,336.00
2022-08-13T01:59:08.711Z,336.00
2022-08-13T01:59:15.680Z,337.00
2022-08-13T02:00:02.831Z,338.00
2022-08-13T02:00:15.802Z,338.00
2022-08-13T02:00:45.840Z,337.00
2022-08-13T02:01:15.853Z,336.00
2022-08-13T02:01:45.826Z,336.00
2022-08-13T02:02:31.508Z,336.00
2022-08-13T02:02:46.368Z,336.00
2022-08-13T02:03:16.706Z,336.00
2022-08-13T02:03:46.013Z,336.00
2022-08-13T02:04:17.935Z,338.00
2022-08-13T02:04:55.900Z,339.00
2022-08-13T02:06:20.022Z,341.00
2022-08-13T02:06:20.665Z,340.00
2022-08-13T02:06:24.276Z,340.00
2022-08-13T02:06:46.190Z,340.00
2022-08-13T02:07:16.798Z,339.00
2022-08-13T02:08:02.621Z,340.00
2022-08-13T02:08:19.722Z,341.00
2022-08-13T02:08:47.335Z,341.00
2022-08-13T02:10:00.043Z,343.00
2022-08-13T02:10:00.453Z,341.00
2022-08-13T02:10:16.422Z,341.00
2022-08-13T02:10:46.509Z,338.00
2022-08-13T02:11:16.626Z,337.00
2022-08-13T02:11:46.743Z,335.00
2022-08-13T02:12:32.878Z,334.00
2022-08-13T02:12:47.206Z,334.00
2022-08-13T02:13:17.289Z,333.00
2022-08-13T02:13:47.014Z,334.00
2022-08-13T02:14:19.731Z,334.00
2022-08-13T02:14:47.082Z,336.00
2022-08-13T02:15:17.126Z,334.00
2022-08-13T02:15:48.077Z,336.00
2022-08-13T02:16:17.300Z,336.00
2022-08-13T02:16:47.371Z,336.00
2022-08-13T02:17:17.390Z,339.00
2022-08-13T02:18:02.817Z,340.00
2022-08-13T02:18:17.605Z,340.00
2022-08-13T02:18:47.471Z,339.00
2022-08-13T02:19:19.880Z,341.00
2022-08-13T02:19:47.538Z,341.00
2022-08-13T02:20:17.589Z,340.00
2022-08-13T02:20:47.701Z,338.00
2022-08-13T02:21:20.713Z,337.00
2022-08-13T02:21:47.753Z,339.00
2022-08-13T02:22:17.758Z,341.00
2022-08-13T02:22:47.874Z,340.00
2022-08-13T02:23:17.974Z,342.00
2022-08-13T02:23:59.771Z,342.00
2022-08-13T02:24:21.311Z,342.00
2022-08-13T02:24:48.002Z,342.00
2022-08-13T02:25:18.126Z,341.00
2022-08-13T02:25:48.112Z,342.00
2022-08-13T02:26:18.128Z,342.00
2022-08-13T02:26:53.735Z,340.00
2022-08-13T02:27:18.166Z,339.00
2022-08-13T02:27:57.492Z,339.00
2022-08-13T02:28:21.704Z,338.00
2022-08-13T02:28:49.456Z,339.00
2022-08-13T02:29:18.354Z,339.00
2022-08-13T02:29:48.467Z,340.00
2022-08-13T02:30:18.585Z,339.00
2022-08-13T02:30:48.701Z,339.00
2022-08-13T02:31:26.017Z,342.00
2022-08-13T02:32:05.626Z,340.00
2022-08-13T02:32:18.771Z,340.00
2022-08-13T02:32:48.777Z,341.00
2022-08-13T02:33:18.888Z,340.00
2022-08-13T02:33:49.000Z,342.00
2022-08-13T02:34:19.213Z,342.00
2022-08-13T02:34:49.053Z,343.00
2022-08-13T02:35:20.061Z,344.00
2022-08-13T02:35:49.165Z,345.00
2022-08-13T02:36:22.560Z,346.00
2022-08-13T02:37:19.104Z,345.00
2022-08-13T02:37:23.996Z,346.00
2022-08-13T02:37:57.311Z,345.00
2022-08-13T02:38:29.801Z,344.00
2022-08-13T02:38:49.287Z,346.00
2022-08-13T02:39:19.439Z,346.00
2022-08-13T02:39:49.473Z,345.00
2022-08-13T02:40:19.450Z,346.00
2022-08-13T02:40:49.562Z,347.00
2022-08-13T02:41:19.628Z,350.00
2022-08-13T02:41:52.418Z,349.00
2022-08-13T02:42:20.919Z,348.00
2022-08-13T02:42:49.876Z,348.00
2022-08-13T02:43:19.880Z,348.00
2022-08-13T02:43:54.946Z,347.00
2022-08-13T02:44:20.097Z,346.00
2022-08-13T02:44:50.781Z,347.00
2022-08-13T02:45:20.111Z,349.00
2022-08-13T02:45:50.185Z,349.00
2022-08-13T02:46:20.274Z,349.00
2022-08-13T02:46:50.417Z,349.00
2022-08-13T02:47:20.488Z,348.00
2022-08-13T02:47:50.599Z,345.00
2022-08-13T02:48:22.292Z,343.00
2022-08-13T02:48:50.690Z,342.00
2022-08-13T02:49:20.742Z,341.00
2022-08-13T02:49:50.832Z,341.00
2022-08-13T02:50:56.955Z,354.00
2022-08-13T02:52:06.204Z,351.00
2022-08-13T02:52:09.753Z,350.00
2022-08-13T02:52:29.233Z,351.00
2022-08-13T02:52:58.861Z,350.00
2022-08-13T02:53:30.641Z,349.00
2022-08-13T02:53:59.098Z,347.00
2022-08-13T02:54:27.409Z,347.00
2022-08-13T02:54:58.202Z,346.00
2022-08-13T02:55:28.283Z,343.00
2022-08-13T02:55:57.617Z,341.00
2022-08-13T02:56:28.461Z,341.00
2022-08-13T02:56:57.705Z,338.00
2022-08-13T02:57:28.010Z,336.00
2022-08-13T02:57:57.753Z,335.00
2022-08-13T02:58:27.832Z,335.00
2022-08-13T02:58:57.905Z,334.00
2022-08-13T03:00:02.547Z,336.00
2022-08-13T03:00:05.097Z,336.00
2022-08-13T03:00:30.778Z,336.00
2022-08-13T03:00:58.864Z,336.00
2022-08-13T03:01:28.492Z,337.00
2022-08-13T03:01:58.367Z,338.00
2022-08-13T03:02:28.487Z,337.00
2022-08-13T03:03:02.037Z,338.00
2022-08-13T03:03:28.601Z,337.00
2022-08-13T03:03:58.711Z,338.00
2022-08-13T03:04:32.848Z,337.00
2022-08-13T03:04:58.934Z,336.00
2022-08-13T03:05:29.810Z,338.00
2022-08-13T03:06:00.413Z,339.00
2022-08-13T03:06:28.983Z,339.00
2022-08-13T03:06:58.988Z,340.00
2022-08-13T03:07:29.174Z,339.00
2022-08-13T03:07:59.105Z,340.00
2022-08-13T03:08:39.141Z,339.00
2022-08-13T03:08:59.134Z,339.00
2022-08-13T03:09:29.141Z,337.00
2022-08-13T03:09:59.663Z,338.00
2022-08-13T03:10:34.477Z,339.00
2022-08-13T03:10:59.360Z,338.00
2022-08-13T03:11:29.350Z,340.00
2022-08-13T03:11:59.464Z,339.00
2022-08-13T03:12:31.773Z,340.00
2022-08-13T03:12:59.608Z,340.00
2022-08-13T03:13:29.623Z,339.00
2022-08-13T03:13:59.635Z,338.00
2022-08-13T03:14:29.741Z,338.00
2022-08-13T03:14:59.857Z,337.00
2022-08-13T03:15:34.415Z,339.00
2022-08-13T03:16:02.028Z,339.00
2022-08-13T03:16:30.073Z,338.00
2022-08-13T03:17:00.213Z,338.00
2022-08-13T03:17:30.278Z,339.00
2022-08-13T03:18:00.390Z,338.00
2022-08-13T03:18:39.372Z,337.00
2022-08-13T03:19:01.923Z,334.00
2022-08-13T03:19:30.562Z,334.00
2022-08-13T03:20:00.574Z,332.00
2022-08-13T03:20:36.479Z,334.00
2022-08-13T03:21:00.700Z,334.00
2022-08-13T03:21:42.572Z,335.00
2022-08-13T03:22:00.972Z,336.00
2022-08-13T03:22:30.923Z,338.00
2022-08-13T03:23:00.915Z,336.00
2022-08-13T03:23:31.009Z,333.00
2022-08-13T03:24:04.712Z,333.00
2022-08-13T03:24:31.815Z,334.00
2022-08-13T03:25:01.104Z,334.00
2022-08-13T03:25:31.492Z,333.00
2022-08-13T03:26:01.270Z,333.00
2022-08-13T03:26:31.382Z,333.00
2022-08-13T03:27:01.531Z,332.00
2022-08-13T03:27:32.330Z,333.00
2022-08-13T03:28:01.537Z,333.00
2022-08-13T03:28:31.658Z,331.00
2022-08-13T03:29:01.769Z,331.00
2022-08-13T03:30:02.535Z,332.00
2022-08-13T03:30:07.961Z,332.00
2022-08-13T03:30:31.908Z,331.00
2022-08-13T03:31:02.027Z,331.00
2022-08-13T03:31:35.451Z,331.00
2022-08-13T03:32:02.124Z,330.00
2022-08-13T03:32:32.270Z,330.00
2022-08-13T03:33:02.234Z,331.00
2022-08-13T03:33:32.347Z,330.00
2022-08-13T03:34:04.234Z,331.00
2022-08-13T03:34:32.385Z,331.00
2022-08-13T03:35:10.541Z,332.00
2022-08-13T03:35:43.449Z,330.00
2022-08-13T03:36:02.469Z,332.00
2022-08-13T03:36:32.490Z,332.00
2022-08-13T03:37:02.480Z,331.00
2022-08-13T03:37:34.028Z,331.00
2022-08-13T03:38:02.635Z,331.00
2022-08-13T03:38:32.754Z,330.00
2022-08-13T03:39:02.879Z,328.00
2022-08-13T03:39:33.055Z,332.00
2022-08-13T03:40:03.069Z,331.00
2022-08-13T03:40:43.800Z,332.00
2022-08-13T03:41:03.824Z,332.00
2022-08-13T03:41:33.188Z,334.00
2022-08-13T03:42:03.202Z,333.00
2022-08-13T03:42:51.543Z,332.00
2022-08-13T03:43:03.309Z,331.00
2022-08-13T03:43:33.304Z,331.00
2022-08-13T03:44:05.745Z,331.00
2022-08-13T03:44:35.145Z,332.00
2022-08-13T03:45:03.438Z,333.00
2022-08-13T03:45:34.202Z,332.00
2022-08-13T03:46:03.590Z,332.00
2022-08-13T03:46:33.654Z,332.00
2022-08-13T03:47:05.088Z,333.00
2022-08-13T03:47:33.814Z,333.00
2022-08-13T03:48:03.806Z,332.00
2022-08-13T03:48:33.920Z,330.00
2022-08-13T03:49:04.042Z,332.00
2022-08-13T03:49:34.037Z,333.00
2022-08-13T03:50:04.150Z,333.00
2022-08-13T03:50:34.255Z,333.00
2022-08-13T03:51:04.334Z,334.00
2022-08-13T03:51:35.462Z,332.00
2022-08-13T03:52:04.490Z,333.00
2022-08-13T03:52:37.546Z,333.00
2022-08-13T03:53:04.552Z,335.00
2022-08-13T03:53:43.379Z,333.00
2022-08-13T03:54:05.053Z,332.00
2022-08-13T03:54:34.786Z,334.00
2022-08-13T03:55:04.790Z,333.00
2022-08-13T03:55:44.309Z,333.00
2022-08-13T03:56:04.938Z,333.00
2022-08-13T03:56:35.609Z,334.00
2022-08-13T03:57:16.419Z,334.00
2022-08-13T03:57:50.990Z,334.00
2022-08-13T03:58:12.787Z,333.00
2022-08-13T03:58:35.281Z,332.00
2022-08-13T03:59:05.358Z,333.00
2022-08-13T03:59:47.240Z,333.00
2022-08-13T04:00:10.409Z,334.00
2022-08-13T04:00:35.560Z,334.00
2022-08-13T04:01:05.665Z,331.00
2022-08-13T04:01:35.715Z,333.00
2022-08-13T04:02:07.581Z,332.00
2022-08-13T04:02:35.734Z,331.00
2022-08-13T04:03:05.747Z,330.00
2022-08-13T04:03:35.761Z,330.00
2022-08-13T04:04:05.858Z,329.00
2022-08-13T04:04:36.462Z,329.00
2022-08-13T04:05:06.177Z,329.00
2022-08-13T04:05:42.029Z,329.00
2022-08-13T04:06:06.048Z,330.00
2022-08-13T04:06:36.048Z,330.00
2022-08-13T04:07:06.167Z,331.00
2022-08-13T04:07:43.306Z,332.00
2022-08-13T04:08:09.484Z,332.00
2022-08-13T04:08:36.394Z,332.00
2022-08-13T04:09:06.295Z,332.00
2022-08-13T04:09:36.310Z,332.00
2022-08-13T04:10:06.465Z,330.00
2022-08-13T04:10:36.421Z,332.00
2022-08-13T04:11:06.531Z,332.00
2022-08-13T04:11:36.562Z,331.00
2022-08-13T04:12:06.677Z,330.00
2022-08-13T04:12:36.761Z,331.00
2022-08-13T04:13:06.729Z,332.00
2022-08-13T04:14:05.677Z,332.00
2022-08-13T04:14:36.925Z,333.00
2022-08-13T04:14:41.168Z,333.00
2022-08-13T04:15:06.894Z,332.00
2022-08-13T04:15:43.941Z,332.00
2022-08-13T04:16:07.017Z,333.00
2022-08-13T04:16:37.062Z,334.00
2022-08-13T04:17:07.093Z,335.00
2022-08-13T04:17:37.148Z,335.00
2022-08-13T04:18:07.426Z,334.00
2022-08-13T04:18:37.182Z,335.00
2022-08-13T04:19:17.691Z,336.00
2022-08-13T04:19:37.193Z,336.00
2022-08-13T04:20:07.224Z,335.00
2022-08-13T04:20:37.280Z,335.00
2022-08-13T04:21:07.309Z,336.00
2022-08-13T04:21:37.317Z,337.00
2022-08-13T04:22:07.425Z,335.00
2022-08-13T04:22:37.508Z,336.00
2022-08-13T04:23:07.564Z,335.00
2022-08-13T04:23:37.769Z,334.00
2022-08-13T04:24:12.352Z,333.00
2022-08-13T04:24:37.568Z,333.00
2022-08-13T04:25:27.849Z,335.00
2022-08-13T04:25:42.752Z,335.00
2022-08-13T04:26:07.646Z,337.00
2022-08-13T04:26:37.762Z,337.00
2022-08-13T04:27:07.883Z,337.00
2022-08-13T04:27:37.872Z,336.00
2022-08-13T04:28:07.887Z,338.00
2022-08-13T04:28:38.008Z,338.00
2022-08-13T04:29:09.456Z,338.00
2022-08-13T04:29:49.901Z,338.00
2022-08-13T04:30:08.107Z,338.00
2022-08-13T04:30:38.207Z,337.00
2022-08-13T04:31:08.248Z,336.00
2022-08-13T04:31:47.016Z,335.00
2022-08-13T04:32:08.286Z,334.00
2022-08-13T04:32:38.400Z,332.00
2022-08-13T04:33:21.884Z,331.00
2022-08-13T04:34:30.625Z,329.00
2022-08-13T04:34:31.307Z,331.00
2022-08-13T04:34:42.482Z,331.00
2022-08-13T04:35:16.744Z,330.00
2022-08-13T04:35:40.965Z,331.00
2022-08-13T04:36:08.542Z,330.00
2022-08-13T04:36:38.659Z,330.00
2022-08-13T04:37:09.623Z,332.00
2022-08-13T04:37:46.245Z,332.00
2022-08-13T04:38:08.708Z,333.00
2022-08-13T04:38:38.823Z,333.00
2022-08-13T04:39:08.916Z,332.00
2022-08-13T04:40:03.515Z,333.00
2022-08-13T04:40:12.516Z,334.00
2022-08-13T04:40:40.802Z,335.00
2022-08-13T04:41:09.078Z,333.00
2022-08-13T04:41:39.430Z,333.00
2022-08-13T04:42:21.354Z,332.00
2022-08-13T04:42:39.165Z,334.00
2022-08-13T04:43:09.211Z,334.00
2022-08-13T04:43:39.320Z,333.00
2022-08-13T04:44:09.410Z,333.00
2022-08-13T04:44:39.512Z,331.00
2022-08-13T04:45:12.155Z,331.00
2022-08-13T04:45:39.682Z,331.00
2022-08-13T04:46:09.596Z,331.00
2022-08-13T04:46:40.267Z,330.00
2022-08-13T04:47:09.791Z,332.00
2022-08-13T04:47:39.858Z,333.00
2022-08-13T04:48:11.030Z,335.00
2022-08-13T04:48:39.853Z,336.00
2022-08-13T04:49:09.873Z,336.00
2022-08-13T04:49:43.529Z,336.00
2022-08-13T04:50:10.810Z,334.00
2022-08-13T04:50:40.088Z,333.00
2022-08-13T04:51:10.510Z,332.00
2022-08-13T04:51:40.177Z,331.00
2022-08-13T04:52:10.267Z,331.00
2022-08-13T04:52:40.503Z,332.00
2022-08-13T04:53:10.396Z,333.00
2022-08-13T04:53:50.520Z,333.00
2022-08-13T04:54:10.589Z,332.00
2022-08-13T04:54:40.670Z,331.00
2022-08-13T04:55:13.377Z,330.00
2022-08-13T04:56:08.777Z,333.00
2022-08-13T04:56:17.909Z,331.00
2022-08-13T04:56:40.965Z,331.00
2022-08-13T04:57:11.093Z,334.00
2022-08-13T04:57:54.886Z,336.00
2022-08-13T04:58:11.276Z,337.00
2022-08-13T04:58:41.389Z,336.00
2022-08-13T04:59:15.844Z,336.00
2022-08-13T04:59:41.576Z,337.00
2022-08-13T05:00:13.551Z,335.00
2022-08-13T05:00:42.454Z,334.00
2022-08-13T05:01:48.664Z,335.00
2022-08-13T05:01:53.957Z,335.00
2022-08-13T05:02:11.836Z,336.00
2022-08-13T05:02:43.466Z,335.00
2022-08-13T05:03:12.614Z,335.00
2022-08-13T05:03:43.824Z,336.00
2022-08-13T05:04:23.714Z,337.00
2022-08-13T05:04:52.486Z,336.00
2022-08-13T05:05:13.755Z,336.00
2022-08-13T05:05:43.072Z,335.00
2022-08-13T05:06:12.333Z,335.00
2022-08-13T05:06:42.998Z,333.00
2022-08-13T05:07:12.470Z,333.00
2022-08-13T05:07:42.458Z,333.00
2022-08-13T05:08:12.476Z,333.00
2022-08-13T05:08:42.594Z,334.00
2022-08-13T05:09:12.614Z,335.00
2022-08-13T05:09:49.328Z,334.00
2022-08-13T05:10:12.624Z,335.00
2022-08-13T05:10:42.676Z,337.00
2022-08-13T05:11:21.391Z,336.00
2022-08-13T05:11:42.807Z,337.00
2022-08-13T05:12:42.526Z,338.00
2022-08-13T05:12:46.587Z,336.00
2022-08-13T05:13:15.622Z,336.00
2022-08-13T05:13:43.866Z,336.00
2022-08-13T05:14:13.010Z,338.00
2022-08-13T05:14:43.126Z,339.00
2022-08-13T05:15:26.441Z,340.00
2022-08-13T05:15:47.814Z,341.00
2022-08-13T05:16:13.324Z,341.00
2022-08-13T05:16:43.324Z,340.00
2022-08-13T05:17:13.699Z,339.00
2022-08-13T05:17:46.745Z,338.00
2022-08-13T05:18:22.147Z,340.00
2022-08-13T05:18:44.215Z,339.00
2022-08-13T05:19:13.567Z,338.00
2022-08-13T05:19:43.601Z,336.00
2022-08-13T05:20:13.606Z,336.00
2022-08-13T05:20:43.656Z,336.00
2022-08-13T05:21:17.979Z,335.00
2022-08-13T05:21:59.148Z,334.00
2022-08-13T05:22:17.601Z,336.00
2022-08-13T05:23:40.274Z,337.00
2022-08-13T05:26:18.317Z,334.00
2022-08-13T05:26:19.069Z,334.00
2022-08-13T05:26:20.050Z,335.00
2022-08-13T05:26:20.506Z,334.00
2022-08-13T05:26:20.964Z,334.00
2022-08-13T05:26:22.374Z,334.00
2022-08-13T05:26:30.454Z,332.00
2022-08-13T05:26:56.665Z,331.00
2022-08-13T05:27:14.203Z,331.00
2022-08-13T05:27:44.927Z,330.00
2022-08-13T05:28:13.964Z,331.00
2022-08-13T05:28:44.082Z,331.00
2022-08-13T05:29:51.855Z,345.00
2022-08-13T05:30:31.397Z,337.00
2022-08-13T05:30:52.011Z,335.00
2022-08-13T05:31:21.603Z,331.00
2022-08-13T05:31:55.982Z,334.00
2022-08-13T05:32:20.639Z,333.00
2022-08-13T05:32:50.985Z,333.00
2022-08-13T05:33:27.035Z,330.00
2022-08-13T05:34:03.962Z,331.00
2022-08-13T05:34:20.955Z,330.00
2022-08-13T05:34:51.574Z,331.00
2022-08-13T05:36:28.065Z,331.00
2022-08-13T05:38:08.293Z,332.00
2022-08-13T05:38:10.985Z,332.00
2022-08-13T05:38:13.498Z,331.00
2022-08-13T05:38:13.689Z,331.00
2022-08-13T05:38:19.454Z,328.00
2022-08-13T05:38:22.465Z,328.00
2022-08-13T05:38:51.841Z,327.00
2022-08-13T05:39:21.917Z,328.00
2022-08-13T05:39:51.998Z,327.00
2022-08-13T05:40:36.898Z,328.00
2022-08-13T05:40:53.546Z,329.00
2022-08-13T05:41:22.172Z,328.00
2022-08-13T05:42:06.696Z,327.00
2022-08-13T05:42:24.418Z,328.00
2022-08-13T05:42:52.215Z,328.00
2022-08-13T05:43:22.341Z,327.00
2022-08-13T05:43:53.416Z,328.00
2022-08-13T05:44:23.055Z,326.00
2022-08-13T05:44:52.474Z,326.00
2022-08-13T05:45:22.471Z,326.00
2022-08-13T05:46:05.291Z,327.00
2022-08-13T05:46:22.605Z,328.00
2022-08-13T05:46:52.619Z,326.00
2022-08-13T05:47:24.835Z,325.00
2022-08-13T05:47:52.748Z,325.00
2022-08-13T05:48:27.905Z,324.00
2022-08-13T05:48:52.873Z,323.00
2022-08-13T05:49:22.977Z,322.00
2022-08-13T05:49:54.641Z,322.00
2022-08-13T05:50:23.082Z,322.00
2022-08-13T05:50:53.107Z,321.00
2022-08-13T05:51:23.216Z,323.00
2022-08-13T05:52:33.204Z,320.00
2022-08-13T05:52:34.573Z,319.00
2022-08-13T05:52:53.649Z,320.00
2022-08-13T05:53:23.375Z,320.00
2022-08-13T05:56:06.425Z,320.00
2022-08-13T05:56:09.656Z,320.00
2022-08-13T05:56:10.228Z,320.00
2022-08-13T05:56:10.604Z,319.00
2022-08-13T05:56:12.543Z,320.00
2022-08-13T05:56:23.531Z,319.00
2022-08-13T05:56:53.604Z,321.00
2022-08-13T05:57:23.732Z,321.00
2022-08-13T05:57:53.722Z,320.00
2022-08-13T05:58:29.287Z,320.00
2022-08-13T05:58:53.861Z,322.00
2022-08-13T05:59:23.869Z,321.00
2022-08-13T05:59:53.982Z,322.00
2022-08-13T06:00:24.063Z,323.00
2022-08-13T06:01:10.807Z,325.00
2022-08-13T06:01:24.066Z,327.00
2022-08-13T06:01:57.693Z,327.00
2022-08-13T06:02:44.118Z,327.00
2022-08-13T06:02:54.164Z,326.00
2022-08-13T06:04:15.517Z,326.00
2022-08-13T06:04:17.647Z,325.00
2022-08-13T06:04:37.785Z,326.00
2022-08-13T06:04:54.269Z,325.00
2022-08-13T06:05:46.699Z,325.00
2022-08-13T06:05:54.291Z,326.00
2022-08-13T06:06:25.194Z,326.00
2022-08-13T06:06:54.428Z,328.00
2022-08-13T06:07:24.425Z,327.00
2022-08-13T06:07:58.658Z,329.00
2022-08-13T06:08:40.604Z,327.00
2022-08-13T06:08:54.466Z,327.00
2022-08-13T06:09:24.555Z,327.00
2022-08-13T06:09:54.569Z,328.00
2022-08-13T06:10:24.639Z,328.00
2022-08-13T06:10:54.648Z,329.00
2022-08-13T06:12:09.005Z,328.00
2022-08-13T06:12:20.566Z,328.00
2022-08-13T06:12:29.913Z,327.00
2022-08-13T06:12:57.778Z,324.00
2022-08-13T06:13:27.375Z,324.00
2022-08-13T06:14:05.509Z,324.00
2022-08-13T06:14:32.200Z,324.00
2022-08-13T06:14:54.874Z,326.00
2022-08-13T06:15:27.616Z,327.00
2022-08-13T06:16:03.800Z,329.00
2022-08-13T06:16:53.686Z,328.00
2022-08-13T06:16:56.104Z,327.00